sensor_id;sensor_type;location;lat;lon;timestamp;pressure;altitude;pressure_sealevel;temperature;humidity
65872;BME280;52653;50.080;21.992;2022-10-28T00:02:18;100427.88;;;8.61;84.74
65872;BME280;52653;50.080;21.992;2022-10-28T00:04:49;100425.98;;;8.54;85.06
65872;BME280;52653;50.080;21.992;2022-10-28T00:07:21;100427.36;;;8.44;84.83
65872;BME280;52653;50.080;21.992;2022-10-28T00:09:53;100426.14;;;8.37;84.59
65872;BME280;52653;50.080;21.992;2022-10-28T00:12:25;100425.95;;;8.29;84.19
65872;BME280;52653;50.080;21.992;2022-10-28T00:14:56;100425.13;;;8.23;84.17
65872;BME280;52653;50.080;21.992;2022-10-28T00:17:28;100421.85;;;8.16;83.97
65872;BME280;52653;50.080;21.992;2022-10-28T00:20:00;100418.36;;;8.09;83.97
65872;BME280;52653;50.080;21.992;2022-10-28T00:22:32;100416.98;;;8.02;83.97
65872;BME280;52653;50.080;21.992;2022-10-28T00:25:05;100417.34;;;7.94;84.33
65872;BME280;52653;50.080;21.992;2022-10-28T00:27:37;100415.98;;;7.88;84.41
65872;BME280;52653;50.080;21.992;2022-10-28T00:30:10;100411.33;;;7.83;84.46
65872;BME280;52653;50.080;21.992;2022-10-28T00:32:42;100410.20;;;7.80;84.50
65872;BME280;52653;50.080;21.992;2022-10-28T00:35:14;100406.82;;;7.77;84.93
65872;BME280;52653;50.080;21.992;2022-10-28T00:37:46;100400.84;;;7.75;85.40
65872;BME280;52653;50.080;21.992;2022-10-28T00:40:17;100399.16;;;7.78;86.03
65872;BME280;52653;50.080;21.992;2022-10-28T00:42:49;100400.04;;;7.78;85.59
65872;BME280;52653;50.080;21.992;2022-10-28T00:45:21;100403.55;;;7.79;85.96
65872;BME280;52653;50.080;21.992;2022-10-28T00:47:56;100403.46;;;7.83;86.00
65872;BME280;52653;50.080;21.992;2022-10-28T00:50:45;100400.38;;;7.86;86.01
65872;BME280;52653;50.080;21.992;2022-10-28T00:53:22;100397.58;;;7.86;85.86
65872;BME280;52653;50.080;21.992;2022-10-28T00:55:55;100398.24;;;7.84;85.86
65872;BME280;52653;50.080;21.992;2022-10-28T00:58:29;100395.05;;;7.75;85.11
65872;BME280;52653;50.080;21.992;2022-10-28T01:01:02;100390.97;;;7.63;84.86
65872;BME280;52653;50.080;21.992;2022-10-28T01:03:34;100388.65;;;7.54;84.54
65872;BME280;52653;50.080;21.992;2022-10-28T01:06:07;100382.30;;;7.44;84.45
65872;BME280;52653;50.080;21.992;2022-10-28T01:08:39;100381.38;;;7.42;84.74
65872;BME280;52653;50.080;21.992;2022-10-28T01:11:26;100378.70;;;7.39;85.08
65872;BME280;52653;50.080;21.992;2022-10-28T01:14:16;100378.26;;;7.43;86.43
65872;BME280;52653;50.080;21.992;2022-10-28T01:17:03;100376.40;;;7.53;87.72
65872;BME280;52653;50.080;21.992;2022-10-28T01:22:50;100372.47;;;7.80;89.30
65872;BME280;52653;50.080;21.992;2022-10-28T01:28:58;100372.72;;;8.07;89.94
65872;BME280;52653;50.080;21.992;2022-10-28T01:31:36;100366.86;;;8.19;90.63
65872;BME280;52653;50.080;21.992;2022-10-28T01:34:19;100366.92;;;8.31;90.62
65872;BME280;52653;50.080;21.992;2022-10-28T01:36:58;100366.62;;;8.40;90.73
65872;BME280;52653;50.080;21.992;2022-10-28T01:39:37;100366.44;;;8.49;90.72
65872;BME280;52653;50.080;21.992;2022-10-28T01:42:23;100358.72;;;8.57;90.57
65872;BME280;52653;50.080;21.992;2022-10-28T01:45:02;100359.40;;;8.65;90.69
65872;BME280;52653;50.080;21.992;2022-10-28T01:47:43;100358.86;;;8.74;90.62
65872;BME280;52653;50.080;21.992;2022-10-28T01:50:17;100356.35;;;8.80;90.37
65872;BME280;52653;50.080;21.992;2022-10-28T01:52:53;100355.55;;;8.85;90.56
65872;BME280;52653;50.080;21.992;2022-10-28T01:55:30;100353.89;;;8.89;90.42
65872;BME280;52653;50.080;21.992;2022-10-28T01:58:05;100351.17;;;8.94;90.31
65872;BME280;52653;50.080;21.992;2022-10-28T02:00:38;100350.15;;;8.96;90.14
65872;BME280;52653;50.080;21.992;2022-10-28T02:03:10;100344.63;;;9.01;90.49
65872;BME280;52653;50.080;21.992;2022-10-28T02:05:44;100340.17;;;9.05;90.28
65872;BME280;52653;50.080;21.992;2022-10-28T02:08:40;100335.30;;;9.08;90.18
65872;BME280;52653;50.080;21.992;2022-10-28T02:11:26;100335.33;;;9.10;90.14
65872;BME280;52653;50.080;21.992;2022-10-28T02:14:09;100328.88;;;9.11;90.00
65872;BME280;52653;50.080;21.992;2022-10-28T02:16:49;100326.80;;;9.13;89.97
65872;BME280;52653;50.080;21.992;2022-10-28T02:19:28;100324.20;;;9.14;90.12
65872;BME280;52653;50.080;21.992;2022-10-28T02:22:12;100324.38;;;9.14;90.00
65872;BME280;52653;50.080;21.992;2022-10-28T02:24:53;100324.23;;;9.16;90.15
65872;BME280;52653;50.080;21.992;2022-10-28T02:27:33;100323.52;;;9.15;90.15
65872;BME280;52653;50.080;21.992;2022-10-28T02:30:07;100315.45;;;9.15;90.07
65872;BME280;52653;50.080;21.992;2022-10-28T02:32:41;100315.49;;;9.16;90.15
65872;BME280;52653;50.080;21.992;2022-10-28T02:35:19;100311.27;;;9.15;90.16
65872;BME280;52653;50.080;21.992;2022-10-28T02:37:54;100314.73;;;9.14;89.93
65872;BME280;52653;50.080;21.992;2022-10-28T02:40:29;100317.16;;;9.13;90.02
65872;BME280;52653;50.080;21.992;2022-10-28T02:43:05;100315.40;;;9.11;89.91
65872;BME280;52653;50.080;21.992;2022-10-28T02:45:40;100313.83;;;9.12;90.13
65872;BME280;52653;50.080;21.992;2022-10-28T02:48:17;100310.02;;;9.14;90.01
65872;BME280;52653;50.080;21.992;2022-10-28T02:50:54;100308.81;;;9.15;89.82
65872;BME280;52653;50.080;21.992;2022-10-28T02:53:31;100307.09;;;9.16;89.96
65872;BME280;52653;50.080;21.992;2022-10-28T02:56:08;100305.54;;;9.17;89.71
65872;BME280;52653;50.080;21.992;2022-10-28T02:58:41;100303.96;;;9.18;89.54
65872;BME280;52653;50.080;21.992;2022-10-28T03:01:14;100302.92;;;9.18;89.46
65872;BME280;52653;50.080;21.992;2022-10-28T03:03:47;100304.50;;;9.19;89.40
65872;BME280;52653;50.080;21.992;2022-10-28T03:06:18;100307.67;;;9.21;89.55
65872;BME280;52653;50.080;21.992;2022-10-28T03:08:50;100308.61;;;9.25;89.39
65872;BME280;52653;50.080;21.992;2022-10-28T03:11:22;100303.72;;;9.26;89.16
65872;BME280;52653;50.080;21.992;2022-10-28T03:13:54;100303.00;;;9.24;88.76
65872;BME280;52653;50.080;21.992;2022-10-28T03:16:25;100302.43;;;9.21;88.90
65872;BME280;52653;50.080;21.992;2022-10-28T03:18:57;100299.25;;;9.19;89.00
65872;BME280;52653;50.080;21.992;2022-10-28T03:21:29;100300.73;;;9.14;88.69
65872;BME280;52653;50.080;21.992;2022-10-28T03:24:01;100295.95;;;9.10;88.80
65872;BME280;52653;50.080;21.992;2022-10-28T03:26:32;100298.90;;;9.08;88.85
65872;BME280;52653;50.080;21.992;2022-10-28T03:29:05;100294.66;;;9.05;88.87
65872;BME280;52653;50.080;21.992;2022-10-28T03:31:37;100297.45;;;9.04;88.97
65872;BME280;52653;50.080;21.992;2022-10-28T03:34:08;100296.92;;;9.04;88.98
65872;BME280;52653;50.080;21.992;2022-10-28T03:36:40;100297.98;;;9.05;89.10
65872;BME280;52653;50.080;21.992;2022-10-28T03:39:12;100296.25;;;9.06;89.02
65872;BME280;52653;50.080;21.992;2022-10-28T03:41:44;100295.19;;;9.06;88.92
65872;BME280;52653;50.080;21.992;2022-10-28T03:44:16;100296.08;;;9.06;89.18
65872;BME280;52653;50.080;21.992;2022-10-28T03:46:47;100294.70;;;9.07;89.10
65872;BME280;52653;50.080;21.992;2022-10-28T03:49:19;100296.63;;;9.08;89.04
65872;BME280;52653;50.080;21.992;2022-10-28T03:51:51;100290.16;;;9.08;89.05
65872;BME280;52653;50.080;21.992;2022-10-28T03:54:22;100288.92;;;9.08;88.93
65872;BME280;52653;50.080;21.992;2022-10-28T03:56:54;100288.55;;;9.06;88.84
65872;BME280;52653;50.080;21.992;2022-10-28T03:59:26;100284.54;;;9.06;88.99
65872;BME280;52653;50.080;21.992;2022-10-28T04:01:58;100281.38;;;9.06;88.84
65872;BME280;52653;50.080;21.992;2022-10-28T04:04:30;100281.06;;;9.09;89.15
65872;BME280;52653;50.080;21.992;2022-10-28T04:07:01;100278.12;;;9.11;89.03
65872;BME280;52653;50.080;21.992;2022-10-28T04:09:33;100277.42;;;9.12;88.89
65872;BME280;52653;50.080;21.992;2022-10-28T04:12:08;100276.15;;;9.08;88.52
65872;BME280;52653;50.080;21.992;2022-10-28T04:14:40;100272.04;;;9.03;88.52
65872;BME280;52653;50.080;21.992;2022-10-28T04:17:12;100266.69;;;8.96;88.42
65872;BME280;52653;50.080;21.992;2022-10-28T04:19:44;100266.45;;;8.91;88.39
65872;BME280;52653;50.080;21.992;2022-10-28T04:22:15;100265.35;;;8.89;88.37
65872;BME280;52653;50.080;21.992;2022-10-28T04:24:47;100264.06;;;8.85;88.19
65872;BME280;52653;50.080;21.992;2022-10-28T04:27:19;100259.52;;;8.85;88.30
65872;BME280;52653;50.080;21.992;2022-10-28T04:29:51;100259.66;;;8.83;88.22
65872;BME280;52653;50.080;21.992;2022-10-28T04:32:22;100259.89;;;8.76;87.93
65872;BME280;52653;50.080;21.992;2022-10-28T04:34:54;100254.61;;;8.74;88.19
65872;BME280;52653;50.080;21.992;2022-10-28T04:37:26;100257.94;;;8.75;88.40
65872;BME280;52653;50.080;21.992;2022-10-28T04:39:57;100257.41;;;8.74;88.41
65872;BME280;52653;50.080;21.992;2022-10-28T04:42:29;100255.67;;;8.75;88.48
65872;BME280;52653;50.080;21.992;2022-10-28T04:45:01;100249.59;;;8.77;88.69
65872;BME280;52653;50.080;21.992;2022-10-28T04:47:33;100247.20;;;8.79;88.82
65872;BME280;52653;50.080;21.992;2022-10-28T04:50:06;100244.94;;;8.81;88.66
65872;BME280;52653;50.080;21.992;2022-10-28T04:52:38;100241.95;;;8.80;88.73
65872;BME280;52653;50.080;21.992;2022-10-28T04:55:10;100243.36;;;8.80;88.88
65872;BME280;52653;50.080;21.992;2022-10-28T04:57:42;100237.52;;;8.76;88.71
65872;BME280;52653;50.080;21.992;2022-10-28T05:00:14;100243.24;;;8.75;88.92
65872;BME280;52653;50.080;21.992;2022-10-28T05:02:46;100246.75;;;8.75;88.98
65872;BME280;52653;50.080;21.992;2022-10-28T05:05:20;100250.25;;;8.76;88.86
65872;BME280;52653;50.080;21.992;2022-10-28T05:07:52;100251.11;;;8.75;88.68
65872;BME280;52653;50.080;21.992;2022-10-28T05:10:25;100249.53;;;8.74;88.56
65872;BME280;52653;50.080;21.992;2022-10-28T05:12:56;100246.04;;;8.74;88.51
65872;BME280;52653;50.080;21.992;2022-10-28T05:15:28;100244.46;;;8.75;88.63
65872;BME280;52653;50.080;21.992;2022-10-28T05:18:00;100245.58;;;8.78;88.50
65872;BME280;52653;50.080;21.992;2022-10-28T05:20:33;100242.65;;;8.79;88.50
65872;BME280;52653;50.080;21.992;2022-10-28T05:23:04;100239.51;;;8.80;88.43
65872;BME280;52653;50.080;21.992;2022-10-28T05:25:36;100240.36;;;8.79;88.31
65872;BME280;52653;50.080;21.992;2022-10-28T05:28:10;100239.27;;;8.77;88.21
65872;BME280;52653;50.080;21.992;2022-10-28T05:30:42;100241.99;;;8.73;88.32
65872;BME280;52653;50.080;21.992;2022-10-28T05:33:14;100240.56;;;8.71;88.25
65872;BME280;52653;50.080;21.992;2022-10-28T05:35:46;100237.77;;;8.71;88.40
65872;BME280;52653;50.080;21.992;2022-10-28T05:38:18;100239.90;;;8.73;88.52
65872;BME280;52653;50.080;21.992;2022-10-28T05:40:50;100239.98;;;8.77;88.66
65872;BME280;52653;50.080;21.992;2022-10-28T05:43:21;100243.38;;;8.82;88.61
65872;BME280;52653;50.080;21.992;2022-10-28T05:45:56;100237.86;;;8.89;88.54
65872;BME280;52653;50.080;21.992;2022-10-28T05:48:28;100235.98;;;8.90;87.99
65872;BME280;52653;50.080;21.992;2022-10-28T05:51:00;100239.48;;;8.90;87.98
65872;BME280;52653;50.080;21.992;2022-10-28T05:53:31;100242.87;;;8.94;88.12
65872;BME280;52653;50.080;21.992;2022-10-28T05:56:03;100245.56;;;9.00;88.21
65872;BME280;52653;50.080;21.992;2022-10-28T05:58:35;100250.02;;;9.03;88.32
65872;BME280;52653;50.080;21.992;2022-10-28T06:01:08;100249.52;;;9.06;88.23
65872;BME280;52653;50.080;21.992;2022-10-28T06:03:39;100247.96;;;9.08;88.33
65872;BME280;52653;50.080;21.992;2022-10-28T06:06:11;100247.30;;;9.10;88.70
65872;BME280;52653;50.080;21.992;2022-10-28T06:08:43;100252.48;;;9.17;88.82
65872;BME280;52653;50.080;21.992;2022-10-28T06:11:15;100249.25;;;9.24;88.78
65872;BME280;52653;50.080;21.992;2022-10-28T06:13:47;100254.13;;;9.33;88.66
65872;BME280;52653;50.080;21.992;2022-10-28T06:16:19;100254.95;;;9.43;88.48
65872;BME280;52653;50.080;21.992;2022-10-28T06:18:51;100254.59;;;9.54;88.53
65872;BME280;52653;50.080;21.992;2022-10-28T06:21:22;100250.54;;;9.66;88.15
65872;BME280;52653;50.080;21.992;2022-10-28T06:23:55;100254.19;;;9.78;88.08
65872;BME280;52653;50.080;21.992;2022-10-28T06:26:27;100254.39;;;9.94;88.09
65872;BME280;52653;50.080;21.992;2022-10-28T06:28:59;100255.45;;;10.12;88.01
65872;BME280;52653;50.080;21.992;2022-10-28T06:31:31;100254.94;;;10.26;87.29
65872;BME280;52653;50.080;21.992;2022-10-28T06:34:03;100255.20;;;10.34;86.94
65872;BME280;52653;50.080;21.992;2022-10-28T06:36:35;100258.27;;;10.42;86.64
65872;BME280;52653;50.080;21.992;2022-10-28T06:39:07;100256.21;;;10.48;86.62
65872;BME280;52653;50.080;21.992;2022-10-28T06:41:39;100255.42;;;10.56;86.44
65872;BME280;52653;50.080;21.992;2022-10-28T06:44:10;100255.29;;;10.62;85.90
65872;BME280;52653;50.080;21.992;2022-10-28T06:46:42;100261.14;;;10.68;85.60
65872;BME280;52653;50.080;21.992;2022-10-28T06:49:14;100260.83;;;10.74;85.19
65872;BME280;52653;50.080;21.992;2022-10-28T06:51:47;100262.14;;;10.83;85.00
65872;BME280;52653;50.080;21.992;2022-10-28T06:54:19;100255.21;;;10.94;84.76
65872;BME280;52653;50.080;21.992;2022-10-28T06:56:51;100253.88;;;11.05;84.68
65872;BME280;52653;50.080;21.992;2022-10-28T06:59:22;100255.03;;;11.18;85.02
65872;BME280;52653;50.080;21.992;2022-10-28T07:01:54;100255.66;;;11.34;85.04
65872;BME280;52653;50.080;21.992;2022-10-28T07:04:26;100259.92;;;11.43;84.27
65872;BME280;52653;50.080;21.992;2022-10-28T07:06:59;100257.70;;;11.55;84.31
65872;BME280;52653;50.080;21.992;2022-10-28T07:09:30;100260.93;;;11.66;84.13
65872;BME280;52653;50.080;21.992;2022-10-28T07:12:03;100256.79;;;11.80;83.56
65872;BME280;52653;50.080;21.992;2022-10-28T07:14:36;100244.73;;;11.96;83.25
65872;BME280;52653;50.080;21.992;2022-10-28T07:17:08;100239.33;;;12.12;82.95
65872;BME280;52653;50.080;21.992;2022-10-28T07:19:39;100242.71;;;12.27;82.24
65872;BME280;52653;50.080;21.992;2022-10-28T07:22:11;100246.08;;;12.41;81.95
65872;BME280;52653;50.080;21.992;2022-10-28T07:24:43;100242.92;;;12.54;81.40
65872;BME280;52653;50.080;21.992;2022-10-28T07:27:15;100246.10;;;12.64;80.66
65872;BME280;52653;50.080;21.992;2022-10-28T07:29:46;100254.20;;;12.70;79.84
65872;BME280;52653;50.080;21.992;2022-10-28T07:32:18;100249.10;;;12.75;79.55
65872;BME280;52653;50.080;21.992;2022-10-28T07:34:50;100249.97;;;12.79;79.13
65872;BME280;52653;50.080;21.992;2022-10-28T07:37:22;100248.58;;;12.85;79.01
65872;BME280;52653;50.080;21.992;2022-10-28T07:39:54;100252.61;;;12.91;78.27
65872;BME280;52653;50.080;21.992;2022-10-28T07:42:26;100259.13;;;12.96;78.02
65872;BME280;52653;50.080;21.992;2022-10-28T07:44:58;100254.19;;;13.05;78.73
65872;BME280;52653;50.080;21.992;2022-10-28T07:47:29;100251.91;;;13.12;78.02
65872;BME280;52653;50.080;21.992;2022-10-28T07:50:02;100245.03;;;13.12;77.06
65872;BME280;52653;50.080;21.992;2022-10-28T07:52:35;100241.15;;;13.14;77.40
65872;BME280;52653;50.080;21.992;2022-10-28T07:55:09;100238.32;;;13.16;77.64
65872;BME280;52653;50.080;21.992;2022-10-28T07:57:41;100246.44;;;13.18;77.23
65872;BME280;52653;50.080;21.992;2022-10-28T08:00:13;100246.09;;;13.20;77.16
65872;BME280;52653;50.080;21.992;2022-10-28T08:02:45;100249.46;;;13.22;76.97
65872;BME280;52653;50.080;21.992;2022-10-28T08:05:18;100249.80;;;13.27;76.73
65872;BME280;52653;50.080;21.992;2022-10-28T08:07:50;100254.54;;;13.31;76.80
65872;BME280;52653;50.080;21.992;2022-10-28T08:10:22;100256.65;;;13.38;76.46
65872;BME280;52653;50.080;21.992;2022-10-28T08:12:56;100262.08;;;13.46;76.20
65872;BME280;52653;50.080;21.992;2022-10-28T08:15:29;100259.06;;;13.54;76.06
65872;BME280;52653;50.080;21.992;2022-10-28T08:18:01;100260.64;;;13.59;75.73
65872;BME280;52653;50.080;21.992;2022-10-28T08:20:33;100256.20;;;13.68;75.84
65872;BME280;52653;50.080;21.992;2022-10-28T08:23:05;100251.60;;;13.75;75.50
65872;BME280;52653;50.080;21.992;2022-10-28T08:25:37;100248.22;;;13.79;75.17
65872;BME280;52653;50.080;21.992;2022-10-28T08:28:09;100251.73;;;13.86;75.47
65872;BME280;52653;50.080;21.992;2022-10-28T08:30:40;100256.65;;;13.90;75.25
65872;BME280;52653;50.080;21.992;2022-10-28T08:33:32;100261.73;;;13.94;74.99
65872;BME280;52653;50.080;21.992;2022-10-28T08:36:05;100261.02;;;14.00;75.30
65872;BME280;52653;50.080;21.992;2022-10-28T08:38:37;100256.38;;;14.09;75.45
65872;BME280;52653;50.080;21.992;2022-10-28T08:41:26;100258.60;;;14.23;75.26
65872;BME280;52653;50.080;21.992;2022-10-28T08:44:22;100255.54;;;14.32;74.66
65872;BME280;52653;50.080;21.992;2022-10-28T08:47:08;100251.46;;;14.38;74.19
65872;BME280;52653;50.080;21.992;2022-10-28T08:49:45;100247.55;;;14.42;74.07
65872;BME280;52653;50.080;21.992;2022-10-28T08:52:26;100249.65;;;14.49;74.28
65872;BME280;52653;50.080;21.992;2022-10-28T08:55:02;100252.95;;;14.57;74.53
65872;BME280;52653;50.080;21.992;2022-10-28T08:57:38;100253.95;;;14.65;74.53
65872;BME280;52653;50.080;21.992;2022-10-28T09:00:21;100246.46;;;14.71;74.06
65872;BME280;52653;50.080;21.992;2022-10-28T09:03:15;100245.92;;;14.76;73.50
65872;BME280;52653;50.080;21.992;2022-10-28T09:05:48;100256.64;;;14.82;73.16
65872;BME280;52653;50.080;21.992;2022-10-28T09:08:25;100258.54;;;14.85;72.61
65872;BME280;52653;50.080;21.992;2022-10-28T09:14:33;100249.77;;;15.01;72.39
65872;BME280;52653;50.080;21.992;2022-10-28T09:17:15;100250.71;;;15.13;72.03
65872;BME280;52653;50.080;21.992;2022-10-28T09:19:50;100251.44;;;15.29;72.45
65872;BME280;52653;50.080;21.992;2022-10-28T09:22:26;100255.38;;;15.41;70.02
65872;BME280;52653;50.080;21.992;2022-10-28T09:25:02;100260.08;;;15.49;69.37
65872;BME280;52653;50.080;21.992;2022-10-28T09:27:46;100256.08;;;15.58;69.75
65872;BME280;52653;50.080;21.992;2022-10-28T09:30:38;100253.70;;;15.68;69.73
65872;BME280;52653;50.080;21.992;2022-10-28T09:33:30;100249.88;;;15.77;69.22
65872;BME280;52653;50.080;21.992;2022-10-28T09:36:12;100248.35;;;15.85;69.28
65872;BME280;52653;50.080;21.992;2022-10-28T09:38:45;100246.69;;;15.92;68.85
65872;BME280;52653;50.080;21.992;2022-10-28T09:41:20;100245.52;;;16.00;69.32
65872;BME280;52653;50.080;21.992;2022-10-28T09:43:55;100242.62;;;16.06;68.61
65872;BME280;52653;50.080;21.992;2022-10-28T09:46:30;100240.23;;;16.11;67.92
65872;BME280;52653;50.080;21.992;2022-10-28T09:49:13;100232.73;;;16.16;68.26
65872;BME280;52653;50.080;21.992;2022-10-28T09:51:51;100229.98;;;16.23;68.12
65872;BME280;52653;50.080;21.992;2022-10-28T09:54:29;100229.73;;;16.29;67.50
65872;BME280;52653;50.080;21.992;2022-10-28T09:57:03;100230.34;;;16.34;67.38
65872;BME280;52653;50.080;21.992;2022-10-28T10:27:16;100208.41;;;17.18;65.44
65872;BME280;52653;50.080;21.992;2022-10-28T10:29:51;100202.98;;;17.52;64.69
65872;BME280;52653;50.080;21.992;2022-10-28T10:32:26;100201.48;;;17.56;63.71
65872;BME280;52653;50.080;21.992;2022-10-28T10:35:03;100200.38;;;17.58;63.70
65872;BME280;52653;50.080;21.992;2022-10-28T10:37:42;100199.55;;;17.63;64.45
65872;BME280;52653;50.080;21.992;2022-10-28T10:40:21;100197.38;;;17.66;63.34
65872;BME280;52653;50.080;21.992;2022-10-28T10:42:54;100198.02;;;17.71;63.36
65872;BME280;52653;50.080;21.992;2022-10-28T10:45:51;100200.88;;;17.78;63.72
65872;BME280;52653;50.080;21.992;2022-10-28T10:48:24;100201.94;;;17.87;63.51
65872;BME280;52653;50.080;21.992;2022-10-28T10:50:57;100201.45;;;17.93;63.18
65872;BME280;52653;50.080;21.992;2022-10-28T10:53:31;100197.20;;;18.00;62.91
65872;BME280;52653;50.080;21.992;2022-10-28T10:56:06;100197.03;;;18.08;62.86
65872;BME280;52653;50.080;21.992;2022-10-28T10:58:46;100194.90;;;18.16;62.30
65872;BME280;52653;50.080;21.992;2022-10-28T11:01:22;100194.74;;;18.23;62.67
65872;BME280;52653;50.080;21.992;2022-10-28T11:03:59;100186.77;;;18.30;62.53
65872;BME280;52653;50.080;21.992;2022-10-28T11:06:35;100181.63;;;18.36;62.13
65872;BME280;52653;50.080;21.992;2022-10-28T11:09:19;100179.85;;;18.44;62.12
65872;BME280;52653;50.080;21.992;2022-10-28T11:11:53;100177.92;;;18.50;61.78
65872;BME280;52653;50.080;21.992;2022-10-28T11:14:27;100170.16;;;18.55;61.73
65872;BME280;52653;50.080;21.992;2022-10-28T11:17:01;100169.31;;;18.61;61.75
65872;BME280;52653;50.080;21.992;2022-10-28T11:19:36;100168.48;;;18.66;61.21
65872;BME280;52653;50.080;21.992;2022-10-28T11:22:15;100172.19;;;18.67;60.53
65872;BME280;52653;50.080;21.992;2022-10-28T11:28:07;100172.38;;;18.74;60.37
65872;BME280;52653;50.080;21.992;2022-10-28T11:30:52;100169.77;;;18.78;60.00
65872;BME280;52653;50.080;21.992;2022-10-28T11:33:31;100167.36;;;18.83;59.77
65872;BME280;52653;50.080;21.992;2022-10-28T11:36:14;100165.96;;;18.88;60.46
65872;BME280;52653;50.080;21.992;2022-10-28T11:39:02;100164.15;;;18.97;60.43
65872;BME280;52653;50.080;21.992;2022-10-28T11:41:45;100160.20;;;19.05;59.57
65872;BME280;52653;50.080;21.992;2022-10-28T11:44:29;100157.77;;;19.09;58.25
65872;BME280;52653;50.080;21.992;2022-10-28T11:47:13;100152.85;;;19.13;58.43
65872;BME280;52653;50.080;21.992;2022-10-28T11:50:08;100149.63;;;19.21;58.89
65872;BME280;52653;50.080;21.992;2022-10-28T11:52:56;100142.67;;;19.34;59.04
65872;BME280;52653;50.080;21.992;2022-10-28T11:55:38;100140.42;;;19.50;58.98
65872;BME280;52653;50.080;21.992;2022-10-28T11:58:22;100135.91;;;19.65;57.83
65872;BME280;52653;50.080;21.992;2022-10-28T12:01:09;100135.80;;;19.80;57.00
65872;BME280;52653;50.080;21.992;2022-10-28T12:03:54;100132.05;;;19.87;56.04
65872;BME280;52653;50.080;21.992;2022-10-28T12:06:46;100131.48;;;19.87;55.87
65872;BME280;52653;50.080;21.992;2022-10-28T12:09:25;100131.83;;;19.82;55.69
65872;BME280;52653;50.080;21.992;2022-10-28T12:12:13;100128.72;;;19.79;56.36
65872;BME280;52653;50.080;21.992;2022-10-28T12:14:53;100122.30;;;19.74;56.18
65872;BME280;52653;50.080;21.992;2022-10-28T12:17:34;100118.39;;;19.67;56.63
65872;BME280;52653;50.080;21.992;2022-10-28T12:20:15;100116.84;;;19.60;56.74
65872;BME280;52653;50.080;21.992;2022-10-28T12:22:54;100111.05;;;19.50;56.71
65872;BME280;52653;50.080;21.992;2022-10-28T12:25:31;100108.44;;;19.36;56.60
65872;BME280;52653;50.080;21.992;2022-10-28T12:28:11;100109.33;;;19.24;57.15
65872;BME280;52653;50.080;21.992;2022-10-28T12:30:47;100104.80;;;19.14;57.28
65872;BME280;52653;50.080;21.992;2022-10-28T12:33:25;100103.44;;;19.05;57.73
65872;BME280;52653;50.080;21.992;2022-10-28T12:36:15;100102.07;;;18.97;57.46
65872;BME280;52653;50.080;21.992;2022-10-28T12:38:53;100101.65;;;18.87;57.20
65872;BME280;52653;50.080;21.992;2022-10-28T12:41:40;100099.49;;;18.81;57.63
65872;BME280;52653;50.080;21.992;2022-10-28T12:44:15;100103.58;;;18.75;57.74
65872;BME280;52653;50.080;21.992;2022-10-28T12:46:59;100096.80;;;18.69;58.02
65872;BME280;52653;50.080;21.992;2022-10-28T12:49:38;100098.52;;;18.63;58.39
65872;BME280;52653;50.080;21.992;2022-10-28T12:52:23;100091.83;;;18.54;58.58
65872;BME280;52653;50.080;21.992;2022-10-28T12:55:02;100094.72;;;18.46;59.04
65872;BME280;52653;50.080;21.992;2022-10-28T12:57:39;100095.76;;;18.39;59.58
65872;BME280;52653;50.080;21.992;2022-10-28T13:00:18;100098.97;;;18.32;59.74
65872;BME280;52653;50.080;21.992;2022-10-28T13:02:57;100098.20;;;18.20;59.47
65872;BME280;52653;50.080;21.992;2022-10-28T13:05:36;100100.44;;;18.09;59.91
65872;BME280;52653;50.080;21.992;2022-10-28T13:08:28;100104.94;;;17.99;60.25
65872;BME280;52653;50.080;21.992;2022-10-28T13:11:25;100106.52;;;17.84;60.51
65872;BME280;52653;50.080;21.992;2022-10-28T13:14:05;100105.17;;;17.72;60.87
65872;BME280;52653;50.080;21.992;2022-10-28T13:16:58;100107.71;;;17.61;61.28
65872;BME280;52653;50.080;21.992;2022-10-28T13:19:45;100105.28;;;17.50;61.43
65872;BME280;52653;50.080;21.992;2022-10-28T13:22:38;100110.12;;;17.39;62.04
65872;BME280;52653;50.080;21.992;2022-10-28T13:25:26;100112.80;;;17.29;62.43
65872;BME280;52653;50.080;21.992;2022-10-28T13:28:03;100108.73;;;17.20;62.68
65872;BME280;52653;50.080;21.992;2022-10-28T13:30:35;100107.52;;;17.10;63.00
65872;BME280;52653;50.080;21.992;2022-10-28T13:33:12;100106.63;;;17.01;63.30
65872;BME280;52653;50.080;21.992;2022-10-28T13:35:48;100105.56;;;16.93;63.73
65872;BME280;52653;50.080;21.992;2022-10-28T13:38:22;100102.91;;;16.83;63.91
65872;BME280;52653;50.080;21.992;2022-10-28T13:41:27;100105.19;;;16.74;64.27
65872;BME280;52653;50.080;21.992;2022-10-28T13:44:26;100103.41;;;16.64;64.60
65872;BME280;52653;50.080;21.992;2022-10-28T13:47:26;100105.15;;;16.56;64.85
65872;BME280;52653;50.080;21.992;2022-10-28T13:50:33;100103.70;;;16.47;65.04
65872;BME280;52653;50.080;21.992;2022-10-28T13:56:23;100101.73;;;16.28;65.40
65872;BME280;52653;50.080;21.992;2022-10-28T13:59:01;100106.23;;;16.22;65.55
65872;BME280;52653;50.080;21.992;2022-10-28T14:01:51;100109.83;;;16.19;66.06
65872;BME280;52653;50.080;21.992;2022-10-28T14:04:44;100104.70;;;16.19;66.15
65872;BME280;52653;50.080;21.992;2022-10-28T14:07:26;100104.74;;;16.17;66.14
65872;BME280;52653;50.080;21.992;2022-10-28T14:10:14;100103.91;;;16.14;66.41
65872;BME280;52653;50.080;21.992;2022-10-28T14:12:53;100102.40;;;16.08;66.55
65872;BME280;52653;50.080;21.992;2022-10-28T14:15:29;100101.45;;;16.02;66.75
65872;BME280;52653;50.080;21.992;2022-10-28T14:18:06;100101.86;;;15.97;67.01